Map

Track Data

SID SEASON NUMBER BASIN SUBBASIN NAME ISO_TIME NATURE LAT LON WMO_WIND WMO_PRES WMO_AGENCY TRACK_TYPE DIST2LAND LANDFALL IFLAG USA_AGENCY USA_ATCF_ID USA_LAT USA_LON USA_RECORD USA_STATUS USA_WIND USA_PRES USA_SSHS USA_R34_NE USA_R34_SE USA_R34_SW USA_R34_NW USA_R50_NE USA_R50_SE USA_R50_SW USA_R50_NW USA_R64_NE USA_R64_SE USA_R64_SW USA_R64_NW USA_POCI USA_ROCI USA_RMW USA_EYE TOKYO_LAT TOKYO_LON TOKYO_GRADE TOKYO_WIND TOKYO_PRES TOKYO_R50_DIR TOKYO_R50_LONG TOKYO_R50_SHORT TOKYO_R30_DIR TOKYO_R30_LONG TOKYO_R30_SHORT TOKYO_LAND CMA_LAT CMA_LON CMA_CAT CMA_WIND CMA_PRES HKO_LAT HKO_LON HKO_CAT HKO_WIND HKO_PRES NEWDELHI_LAT NEWDELHI_LON NEWDELHI_GRADE NEWDELHI_WIND NEWDELHI_PRES NEWDELHI_CI NEWDELHI_DP NEWDELHI_POCI REUNION_LAT REUNION_LON REUNION_TYPE REUNION_WIND REUNION_PRES REUNION_TNUM REUNION_CI REUNION_RMW REUNION_R34_NE REUNION_R34_SE REUNION_R34_SW REUNION_R34_NW REUNION_R50_NE REUNION_R50_SE REUNION_R50_SW REUNION_R50_NW REUNION_R64_NE REUNION_R64_SE REUNION_R64_SW REUNION_R64_NW BOM_LAT BOM_LON BOM_TYPE BOM_WIND BOM_PRES BOM_TNUM BOM_CI BOM_RMW BOM_R34_NE BOM_R34_SE BOM_R34_SW BOM_R34_NW BOM_R50_NE BOM_R50_SE BOM_R50_SW BOM_R50_NW BOM_R64_NE BOM_R64_SE BOM_R64_SW BOM_R64_NW BOM_ROCI BOM_POCI BOM_EYE BOM_POS_METHOD BOM_PRES_METHOD NADI_LAT NADI_LON NADI_CAT NADI_WIND NADI_PRES WELLINGTON_LAT WELLINGTON_LON WELLINGTON_WIND WELLINGTON_PRES DS824_LAT DS824_LON DS824_STAGE DS824_WIND DS824_PRES TD9636_LAT TD9636_LON TD9636_STAGE TD9636_WIND TD9636_PRES TD9635_LAT TD9635_LON TD9635_WIND TD9635_PRES TD9635_ROCI NEUMANN_LAT NEUMANN_LON NEUMANN_CLASS NEUMANN_WIND NEUMANN_PRES MLC_LAT MLC_LON MLC_CLASS MLC_WIND MLC_PRES USA_GUST BOM_GUST BOM_GUST_PER REUNION_GUST REUNION_GUST_PER USA_SEAHGT USA_SEARAD_NE USA_SEARAD_SE USA_SEARAD_SW USA_SEARAD_NW STORM_SPEED STORM_DIR
1973263N15115 1973 100 WP MM NOT_NAMED 1973-09-20 06:00:00 TS 15.0000 115.000 main 516 516 __O___________ -1 15.0000 115.000 1 23 1006 7 252
1973263N15115 1973 100 WP MM NOT_NAMED 1973-09-20 09:00:00 TS 14.8901 114.660 main 550 548 __P___________ -1 14.8901 114.660 1 21 1007 7 254
1973263N15115 1973 100 WP MM NOT_NAMED 1973-09-20 12:00:00 TS 14.8000 114.300 main 548 503 __O___________ -1 14.8000 114.300 0 19 1008 7 259
1973263N15115 1973 100 WP MM NOT_NAMED 1973-09-20 15:00:00 TS 14.7425 113.908 main 503 461 __P___________ -1 14.7425 113.908 0 19 1008 8 263
1973263N15115 1973 100 WP MM NOT_NAMED 1973-09-20 18:00:00 TS 14.7000 113.500 main 461 417 __O___________ -1 14.7000 113.500 0 19 1008 8 262
1973263N15115 1973 100 WP MM NOT_NAMED 1973-09-20 21:00:00 TS 14.6349 113.107 main 417 374 __P___________ -1 14.6349 113.107 0 19 1008 8 263
1973263N15115 1973 100 WP MM NOT_NAMED 1973-09-21 00:00:00 TS 14.6000 112.700 main 374 332 __O___________ -1 14.6000 112.700 0 19 1008 9 270
1973263N15115 1973 100 WP MM NOT_NAMED 1973-09-21 03:00:00 TS 14.6276 112.228 main 322 283 __P___________ -1 14.6276 112.228 0 19 1007 9 277
1973263N15115 1973 100 WP MM NOT_NAMED 1973-09-21 06:00:00 TS 14.7000 111.800 main 283 257 __O___________ -1 14.7000 111.800 0 19 1007 7 284
1973263N15115 1973 100 WP MM NOT_NAMED 1973-09-21 09:00:00 TS 14.7923 111.520 main 257 237 __P___________ -1 14.7923 111.520 0 19 1007 5 292
1973263N15115 1973 100 WP MM NOT_NAMED 1973-09-21 12:00:00 TS 14.9000 111.300 main 237 207 __O___________ -1 14.9000 111.300 0 19 1007 5 292
1973263N15115 1973 100 WP MM NOT_NAMED 1973-09-21 15:00:00 TS 14.9850 111.035 main 207 188 __P___________ -1 14.9850 111.035 0 19 1007 5 292
1973263N15115 1973 100 WP MM NOT_NAMED 1973-09-21 18:00:00 TS 15.1000 110.800 main 188 174 __O___________ -1 15.1000 110.800 0 19 1007 5 309
1973263N15115 1973 100 WP MM NOT_NAMED 1973-09-21 21:00:00 TS 15.2925 110.635 main 174 169 __P___________ -1 15.2925 110.635 0 19 1007 5 324
1973263N15115 1973 100 WP MM NOT_NAMED 1973-09-22 00:00:00 TS 15.5000 110.500 main 174 166 __O___________ -1 15.5000 110.500 0 19 1007 5 323
1973263N15115 1973 100 WP MM NOT_NAMED 1973-09-22 03:00:00 TS 15.6575 110.350 main 160 154 __P___________ -1 15.6575 110.350 0 21 1006 4 316
1973263N15115 1973 100 WP MM NOT_NAMED 1973-09-22 06:00:00 TS 15.8000 110.200 main 154 150 __O___________ -1 15.8000 110.200 1 23 1005 4 316
1973263N15115 1973 100 WP MM NOT_NAMED 1973-09-22 09:00:00 TS 15.9575 110.043 main 148 147 __P___________ -1 15.9575 110.043 1 21 1005 4 316
1973263N15115 1973 100 WP MM NOT_NAMED 1973-09-22 12:00:00 TS 16.1000 109.900 main 147 147 __O___________ -1 16.1000 109.900 0 19 1006 3 318
1973263N15115 1973 100 WP MM NOT_NAMED 1973-09-22 15:00:00 TS 16.2150 109.800 main 147 146 __P___________ -1 16.2150 109.800 0 19 1006 3 316
1973263N15115 1973 100 WP MM NOT_NAMED 1973-09-22 18:00:00 TS 16.3000 109.700 main 146 139 __O___________ -1 16.3000 109.700 0 19 1006 3 302
1973263N15115 1973 100 WP MM NOT_NAMED 1973-09-22 21:00:00 TS 16.3650 109.550 main 144 125 __P___________ -1 16.3650 109.550 0 19 1006 3 289
1973263N15115 1973 100 WP MM NOT_NAMED 1973-09-23 00:00:00 TS 16.4000 109.400 main 125 115 __O___________ -1 16.4000 109.400 0 19 1006 2 278
1973263N15115 1973 100 WP MM NOT_NAMED 1973-09-23 03:00:00 TS 16.4000 109.307 main 115 106 __P___________ -1 16.4000 109.307 0 19 1006 2 270
1973263N15115 1973 100 WP MM NOT_NAMED 1973-09-23 06:00:00 TS 16.4000 109.200 main 106 87 __O___________ -1 16.4000 109.200 0 19 1006 3 278
1973263N15115 1973 100 WP MM NOT_NAMED 1973-09-23 09:00:00 TS 16.4376 109.023 main 87 77 __P___________ -1 16.4376 109.023 0 19 1006 4 285
1973263N15115 1973 100 WP MM NOT_NAMED 1973-09-23 12:00:00 TS 16.5000 108.800 main 77 __O___________ -1 16.5000 108.800 0 19 1007 4 286

Digital Typhoon Data and Search

About IBTrACS Database

This database is a web-friendly format of International Best Track Archive for Climate Stewardship (IBTrACS), a global best track data archive curated by NOAA dating back to 1842.

Updated: 2021-12-03